Time;durP1;ratioP1;P1;durP2;ratioP2;P2;SDS_P1;SDS_P2;PMS_P1;PMS_P2;Temp;Humidity;BMP_temperature;BMP_pressure;BME280_temperature;BME280_humidity;BME280_pressure;Samples;Min_cycle;Max_cycle;Signal;HPM_P1;HPM_P2
2022/08/21 00:00:27;;;;;;;8.27;3.35;;;16.70;99.90;;;;;;5045030;28;20075;-70
2022/08/21 00:03:03;;;;;;;8.95;2.75;;;16.70;99.90;;;;;;5049518;28;20408;-70
2022/08/21 00:05:30;;;;;;;10.13;3.50;;;16.70;99.90;;;;;;5038056;28;20150;-69
2022/08/21 00:07:56;;;;;;;8.50;3.03;;;16.60;99.90;;;;;;5035706;28;20053;-70
2022/08/21 00:10:22;;;;;;;8.98;3.20;;;16.60;99.90;;;;;;5033180;28;20310;-70
2022/08/21 00:12:49;;;;;;;9.50;3.30;;;16.60;99.90;;;;;;5035534;28;20508;-70
2022/08/21 00:15:20;;;;;;;11.77;3.33;;;16.60;99.90;;;;;;5052673;28;20045;-70
2022/08/21 00:17:46;;;;;;;8.63;2.95;;;16.60;99.90;;;;;;5053112;28;20051;-70
2022/08/21 00:20:14;;;;;;;9.98;3.15;;;16.70;99.90;;;;;;5053262;28;20124;-70
2022/08/21 00:22:40;;;;;;;7.88;2.60;;;16.60;99.90;;;;;;5053121;28;20566;-70
2022/08/21 00:25:07;;;;;;;8.45;3.35;;;16.70;99.90;;;;;;5052415;28;20128;-70
2022/08/21 00:27:33;;;;;;;10.23;3.20;;;16.60;99.90;;;;;;5052676;28;20400;-70
2022/08/21 00:29:59;;;;;;;12.25;3.60;;;16.60;99.90;;;;;;5028595;28;20523;-70
2022/08/21 00:32:26;;;;;;;8.95;3.35;;;16.50;99.90;;;;;;5051648;28;20067;-69
2022/08/21 00:34:52;;;;;;;8.18;3.00;;;16.50;99.90;;;;;;5050992;28;20490;-70
2022/08/21 00:37:18;;;;;;;10.50;3.65;;;16.50;99.90;;;;;;5053808;28;20087;-70
2022/08/21 00:39:45;;;;;;;9.48;3.50;;;16.40;99.90;;;;;;5053665;28;20056;-70
2022/08/21 00:42:14;;;;;;;9.18;3.10;;;16.40;99.90;;;;;;5052955;28;20048;-70
2022/08/21 00:44:45;;;;;;;9.40;3.40;;;16.40;99.90;;;;;;5035814;28;20527;-70
2022/08/21 00:47:11;;;;;;;9.95;3.40;;;16.30;99.90;;;;;;5042590;28;20049;-70
2022/08/21 00:49:38;;;;;;;7.85;3.05;;;16.30;99.90;;;;;;5035648;28;20040;-70
2022/08/21 00:52:08;;;;;;;10.85;3.65;;;16.30;99.90;;;;;;5053514;28;20049;-70
2022/08/21 00:54:35;;;;;;;6.95;3.20;;;16.20;99.90;;;;;;5034058;28;20135;-70
2022/08/21 00:57:06;;;;;;;12.60;3.67;;;16.20;99.90;;;;;;5033305;28;20493;-70
2022/08/21 00:59:37;;;;;;;10.88;3.28;;;16.20;99.90;;;;;;5033334;28;20080;-70
2022/08/21 01:02:05;;;;;;;10.80;3.67;;;16.10;99.90;;;;;;5032944;28;20045;-70
2022/08/21 01:04:31;;;;;;;9.18;3.65;;;16.20;99.90;;;;;;5040295;28;20060;-70
2022/08/21 01:06:56;;;;;;;12.52;4.03;;;16.10;99.90;;;;;;5035634;28;20415;-70
2022/08/21 01:09:22;;;;;;;12.10;4.15;;;16.10;99.90;;;;;;5044614;28;20041;-70
2022/08/21 01:11:48;;;;;;;8.45;3.63;;;16.10;99.90;;;;;;4998622;28;20439;-70
2022/08/21 01:14:15;;;;;;;11.63;3.42;;;16.10;99.90;;;;;;5040350;28;20366;-70
2022/08/21 01:16:44;;;;;;;13.52;4.45;;;16.10;99.90;;;;;;5026404;28;20048;-70
2022/08/21 01:19:10;;;;;;;11.88;3.72;;;16.00;99.90;;;;;;5033635;28;20485;-69
2022/08/21 01:21:36;;;;;;;7.93;3.60;;;16.00;99.90;;;;;;5049021;28;20092;-69
2022/08/21 01:24:03;;;;;;;13.57;4.03;;;16.00;99.90;;;;;;5040403;28;20034;-69
2022/08/21 01:26:34;;;;;;;13.32;3.97;;;16.00;99.90;;;;;;5051319;28;20041;-70
2022/08/21 01:29:02;;;;;;;13.48;4.30;;;16.00;99.90;;;;;;5044183;28;20077;-70
2022/08/21 01:31:31;;;;;;;9.32;3.70;;;15.90;99.90;;;;;;5052323;28;20087;-69
2022/08/21 01:33:57;;;;;;;10.25;3.38;;;15.90;99.90;;;;;;5032046;28;20456;-69
2022/08/21 01:36:23;;;;;;;10.75;4.00;;;15.90;99.90;;;;;;5014529;28;20076;-71
2022/08/21 01:38:49;;;;;;;7.85;3.25;;;15.90;99.90;;;;;;5020705;28;20424;-70
2022/08/21 01:41:15;;;;;;;11.25;4.35;;;15.90;99.90;;;;;;5051068;28;20048;-70
2022/08/21 01:43:42;;;;;;;10.00;3.67;;;15.80;99.90;;;;;;5055244;28;20481;-70
2022/08/21 01:46:09;;;;;;;9.38;4.40;;;15.80;99.90;;;;;;5063042;28;20083;-70
2022/08/21 01:48:36;;;;;;;13.07;3.65;;;15.80;99.90;;;;;;5052191;28;20043;-70
2022/08/21 01:51:04;;;;;;;8.70;3.83;;;15.80;99.90;;;;;;5043419;28;20171;-70
2022/08/21 01:53:30;;;;;;;13.60;4.63;;;15.80;99.90;;;;;;5044273;28;20047;-69
2022/08/21 01:55:56;;;;;;;12.02;4.32;;;15.80;99.90;;;;;;5049113;28;20041;-69
2022/08/21 01:58:21;;;;;;;8.82;3.65;;;15.80;99.90;;;;;;5054883;28;20049;-70
2022/08/21 02:00:48;;;;;;;12.73;3.75;;;15.80;99.90;;;;;;5055674;28;20148;-70
2022/08/21 02:03:13;;;;;;;10.38;4.05;;;15.80;99.90;;;;;;5034423;28;20049;-70
2022/08/21 02:05:39;;;;;;;12.00;4.05;;;15.80;99.90;;;;;;5054158;28;20518;-70
2022/08/21 02:08:06;;;;;;;8.20;3.63;;;15.80;99.90;;;;;;5055582;28;20045;-70
2022/08/21 02:10:33;;;;;;;9.25;4.22;;;15.80;99.90;;;;;;5051079;28;20048;-70
2022/08/21 02:13:00;;;;;;;14.48;4.20;;;15.80;99.90;;;;;;5054138;28;20444;-70
2022/08/21 02:15:27;;;;;;;11.07;4.38;;;15.80;99.90;;;;;;5055151;28;20507;-70
2022/08/21 02:17:55;;;;;;;15.07;4.43;;;15.80;99.90;;;;;;5038025;28;20055;-71
2022/08/21 02:20:25;;;;;;;10.02;4.00;;;15.80;99.90;;;;;;5049001;28;20047;-70
2022/08/21 02:22:51;;;;;;;13.98;4.45;;;15.80;99.90;;;;;;5048088;28;20045;-70
2022/08/21 02:25:18;;;;;;;14.05;4.68;;;15.80;99.90;;;;;;5054063;28;20120;-70
2022/08/21 02:27:47;;;;;;;11.15;4.43;;;15.80;99.90;;;;;;5055947;28;20119;-70
2022/08/21 02:30:16;;;;;;;14.63;4.45;;;15.80;99.90;;;;;;5059556;28;20492;-70
2022/08/21 02:32:42;;;;;;;9.85;4.40;;;15.80;99.90;;;;;;5037362;28;20128;-70
2022/08/21 02:35:09;;;;;;;10.48;4.10;;;15.80;99.90;;;;;;5045894;28;20433;-70
2022/08/21 02:37:44;;;;;;;9.13;4.10;;;15.80;99.90;;;;;;5043704;28;20155;-70
2022/08/21 02:40:11;;;;;;;13.85;4.40;;;15.90;99.90;;;;;;5034601;28;20559;-70
2022/08/21 02:42:38;;;;;;;12.32;4.78;;;15.80;99.90;;;;;;5033004;28;20072;-70
2022/08/21 02:45:04;;;;;;;12.90;5.18;;;15.80;99.90;;;;;;5056004;28;20123;-70
2022/08/21 02:47:30;;;;;;;11.27;4.30;;;15.80;99.90;;;;;;5049357;28;20511;-70
2022/08/21 02:49:56;;;;;;;9.68;4.65;;;15.80;99.90;;;;;;5047730;28;20033;-70
2022/08/21 02:52:22;;;;;;;10.68;4.80;;;15.80;99.90;;;;;;5020316;28;20056;-70
2022/08/21 02:54:47;;;;;;;10.43;4.50;;;15.80;99.90;;;;;;5034790;28;20394;-70
2022/08/21 02:57:13;;;;;;;12.48;4.15;;;15.80;99.90;;;;;;5053942;28;20037;-70
2022/08/21 02:59:40;;;;;;;12.38;5.00;;;15.80;99.90;;;;;;5056364;28;20462;-70
2022/08/21 03:02:06;;;;;;;13.35;4.55;;;15.80;99.90;;;;;;5030588;28;20056;-70
2022/08/21 03:04:32;;;;;;;9.73;4.30;;;15.80;99.90;;;;;;5054502;28;20048;-70
2022/08/21 03:06:58;;;;;;;13.15;4.63;;;15.70;99.90;;;;;;5044833;28;20037;-71
2022/08/21 03:09:24;;;;;;;8.82;4.40;;;15.80;99.90;;;;;;5028321;28;20115;-70
2022/08/21 03:11:51;;;;;;;9.25;4.38;;;15.70;99.90;;;;;;5051917;28;21318;-70
2022/08/21 03:14:17;;;;;;;11.77;5.00;;;15.80;99.90;;;;;;5048975;28;20378;-71
2022/08/21 03:16:44;;;;;;;12.25;4.47;;;15.80;99.90;;;;;;5042113;28;20425;-71
2022/08/21 03:19:10;;;;;;;16.70;5.40;;;15.80;99.90;;;;;;5030338;28;20045;-70
2022/08/21 03:21:35;;;;;;;11.05;4.10;;;15.80;99.90;;;;;;5036606;28;20515;-70
2022/08/21 03:24:02;;;;;;;11.75;4.45;;;15.80;99.90;;;;;;5052345;28;20051;-70
2022/08/21 03:26:28;;;;;;;13.57;4.55;;;15.80;99.90;;;;;;5054322;28;20033;-70
2022/08/21 03:28:57;;;;;;;9.75;4.28;;;15.80;99.90;;;;;;5047014;28;20065;-71
2022/08/21 03:31:23;;;;;;;7.57;4.35;;;15.90;99.90;;;;;;5054351;28;20041;-70
2022/08/21 03:33:50;;;;;;;8.00;4.40;;;15.90;99.90;;;;;;5036596;28;20049;-71
2022/08/21 03:36:16;;;;;;;10.13;3.83;;;15.90;99.90;;;;;;5018083;28;20159;-71
2022/08/21 03:38:42;;;;;;;7.93;4.35;;;15.90;99.90;;;;;;5037990;28;20396;-70
2022/08/21 03:41:08;;;;;;;12.15;4.60;;;15.90;99.90;;;;;;5052051;28;20499;-71
2022/08/21 03:43:34;;;;;;;10.50;4.47;;;15.90;99.90;;;;;;5035235;28;20507;-70
2022/08/21 03:46:04;;;;;;;11.00;4.93;;;15.90;99.90;;;;;;5035769;28;20041;-71
2022/08/21 03:48:30;;;;;;;10.18;4.60;;;15.90;99.90;;;;;;5048464;28;20038;-71
2022/08/21 03:50:56;;;;;;;8.32;3.88;;;15.90;99.90;;;;;;5051266;28;20041;-71
2022/08/21 03:53:22;;;;;;;9.88;4.57;;;15.90;99.90;;;;;;5054280;28;20055;-69
2022/08/21 03:55:52;;;;;;;7.47;4.10;;;15.90;99.90;;;;;;5054210;28;20041;-70
2022/08/21 03:58:20;;;;;;;11.07;4.88;;;15.80;99.90;;;;;;5033869;28;20492;-70
2022/08/21 04:00:48;;;;;;;10.48;4.00;;;15.90;99.90;;;;;;5055122;28;20060;-69
2022/08/21 04:03:14;;;;;;;;;;;15.80;99.90;;;;;;5032891;28;20049;-70
2022/08/21 04:05:40;;;;;;;10.60;4.80;;;15.90;99.90;;;;;;5023208;28;19995;-70
2022/08/21 04:08:07;;;;;;;10.00;4.25;;;15.80;99.90;;;;;;5055592;28;20124;-70
2022/08/21 04:10:35;;;;;;;13.45;4.45;;;15.80;99.90;;;;;;5055207;28;20080;-70
2022/08/21 04:13:02;;;;;;;9.82;4.70;;;15.80;99.90;;;;;;5034817;28;20055;-70
2022/08/21 04:15:28;;;;;;;12.73;4.95;;;15.80;99.90;;;;;;5050440;28;20044;-69
2022/08/21 04:17:54;;;;;;;12.82;5.35;;;15.80;99.90;;;;;;5037544;28;20051;-69
2022/08/21 04:20:21;;;;;;;13.75;4.90;;;15.80;99.90;;;;;;5050635;28;20045;-70
2022/08/21 04:22:47;;;;;;;11.97;4.40;;;15.80;99.90;;;;;;5054758;28;20408;-70
2022/08/21 04:25:14;;;;;;;11.20;5.28;;;15.80;99.90;;;;;;5052005;28;20109;-69
2022/08/21 04:27:40;;;;;;;17.88;5.13;;;15.80;99.90;;;;;;5014074;28;20048;-68
2022/08/21 04:30:08;;;;;;;11.55;4.15;;;15.80;99.90;;;;;;5037461;28;20059;-69
2022/08/21 04:32:34;;;;;;;9.27;4.70;;;15.80;99.90;;;;;;5051495;28;20463;-69
2022/08/21 04:35:08;;;;;;;9.52;4.07;;;15.80;99.90;;;;;;5039142;28;20073;-70
2022/08/21 04:37:34;;;;;;;11.85;4.88;;;15.80;99.90;;;;;;5037250;28;20075;-70
2022/08/21 04:40:00;;;;;;;10.52;4.15;;;15.80;99.90;;;;;;5025548;28;20042;-69
2022/08/21 04:42:27;;;;;;;9.77;4.55;;;15.80;99.90;;;;;;5033185;28;20115;-70
2022/08/21 04:44:54;;;;;;;16.40;4.30;;;15.80;99.90;;;;;;5035364;28;20098;-70
2022/08/21 04:47:21;;;;;;;13.40;4.27;;;15.70;99.90;;;;;;5054350;28;20307;-69
2022/08/21 04:49:47;;;;;;;9.80;4.57;;;15.80;99.90;;;;;;5051620;28;20458;-69
2022/08/21 04:52:17;;;;;;;10.57;4.85;;;15.80;99.90;;;;;;5053789;28;20041;-70
2022/08/21 04:54:45;;;;;;;10.95;4.15;;;15.80;99.90;;;;;;5050693;28;20048;-70
2022/08/21 04:57:11;;;;;;;12.13;5.00;;;15.80;99.90;;;;;;5018993;28;20049;-69
2022/08/21 04:59:44;;;;;;;9.60;4.05;;;15.80;99.90;;;;;;5056353;28;20052;-69
2022/08/21 05:02:10;;;;;;;9.25;5.07;;;15.80;99.90;;;;;;5067744;28;20052;-70
2022/08/21 05:04:42;;;;;;;10.65;4.47;;;15.80;99.90;;;;;;5072907;28;20116;-71
2022/08/21 05:07:15;;;;;;;14.10;5.57;;;15.80;99.90;;;;;;5073446;28;20177;-70
2022/08/21 05:09:41;;;;;;;10.90;4.10;;;15.90;99.90;;;;;;5071900;28;20037;-70
2022/08/21 05:12:07;;;;;;;11.88;4.60;;;15.90;99.90;;;;;;5063719;28;20055;-70
2022/08/21 05:14:33;;;;;;;14.13;4.80;;;15.90;99.90;;;;;;5074101;28;20035;-70
2022/08/21 05:16:59;;;;;;;12.32;4.35;;;15.90;99.90;;;;;;5054435;28;20048;-69
2022/08/21 05:19:25;;;;;;;9.48;4.22;;;15.90;99.90;;;;;;5070452;28;20041;-70
2022/08/21 05:21:51;;;;;;;12.13;4.18;;;15.90;99.90;;;;;;5037968;28;20036;-70
2022/08/21 05:24:17;;;;;;;14.02;4.45;;;15.90;99.90;;;;;;5075405;28;20045;-69
2022/08/21 05:26:44;;;;;;;11.20;4.18;;;16.00;99.90;;;;;;5062474;28;20048;-69
2022/08/21 05:29:10;;;;;;;10.52;4.93;;;16.00;99.90;;;;;;5024900;28;20036;-71
2022/08/21 05:31:37;;;;;;;14.73;4.65;;;16.00;99.90;;;;;;5036702;28;20411;-70
2022/08/21 05:34:03;;;;;;;9.90;4.55;;;16.10;99.90;;;;;;5048789;28;20123;-69
2022/08/21 05:36:29;;;;;;;13.50;4.65;;;16.10;99.90;;;;;;5072897;28;20119;-70
2022/08/21 05:38:55;;;;;;;11.82;4.63;;;16.10;99.90;;;;;;5072012;28;20508;-70
2022/08/21 05:41:21;;;;;;;13.27;4.18;;;16.20;99.90;;;;;;5070567;28;20048;-70
2022/08/21 05:43:47;;;;;;;8.95;4.00;;;16.20;99.90;;;;;;5067872;28;20711;-70
2022/08/21 05:46:13;;;;;;;12.57;4.50;;;16.30;99.90;;;;;;5092481;28;20111;-70
2022/08/21 05:48:38;;;;;;;15.05;4.95;;;16.50;99.90;;;;;;5081366;28;20043;-70
2022/08/21 05:51:11;;;;;;;12.15;4.72;;;16.60;99.90;;;;;;5050771;28;20041;-70
2022/08/21 05:53:38;;;;;;;12.45;4.10;;;16.70;99.90;;;;;;5056125;28;20048;-69
2022/08/21 05:56:04;;;;;;;10.85;5.13;;;16.70;99.90;;;;;;5062166;28;20040;-68
2022/08/21 05:58:32;;;;;;;12.45;5.13;;;16.60;99.90;;;;;;5060852;28;20049;-69
2022/08/21 06:00:59;;;;;;;13.63;5.68;;;16.70;99.90;;;;;;5036153;28;20041;-70
2022/08/21 06:03:36;;;;;;;14.57;4.97;;;16.70;99.90;;;;;;5071336;28;20040;-70
2022/08/21 06:06:02;;;;;;;8.50;4.13;;;16.80;99.90;;;;;;5071908;28;20084;-69
2022/08/21 06:08:28;;;;;;;17.52;4.43;;;16.80;99.90;;;;;;5065108;28;20084;-70
2022/08/21 06:10:56;;;;;;;11.02;4.20;;;16.90;99.90;;;;;;5053257;28;20040;-70
2022/08/21 06:13:23;;;;;;;10.10;4.13;;;16.90;99.90;;;;;;5060480;28;20506;-70
2022/08/21 06:15:50;;;;;;;17.17;4.70;;;17.00;99.90;;;;;;5070057;28;20041;-70
2022/08/21 06:18:16;;;;;;;12.13;4.53;;;17.10;99.90;;;;;;5056671;28;20052;-69
2022/08/21 06:20:42;;;;;;;16.10;4.50;;;17.30;99.90;;;;;;5070226;28;20045;-70
2022/08/21 06:23:08;;;;;;;10.02;4.13;;;17.50;99.90;;;;;;5047820;28;20051;-68
2022/08/21 06:25:34;;;;;;;11.40;4.28;;;17.90;99.90;;;;;;5070798;28;20400;-70
2022/08/21 06:28:08;;;;;;;15.30;3.95;;;18.40;99.90;;;;;;5068232;28;20037;-69
2022/08/21 06:30:35;;;;;;;10.90;4.18;;;18.90;99.90;;;;;;5074133;28;20040;-69
2022/08/21 06:33:02;;;;;;;11.13;4.28;;;19.30;99.90;;;;;;5075334;28;20054;-69
2022/08/21 06:35:29;;;;;;;10.55;3.80;;;19.70;99.90;;;;;;5074278;28;20052;-70
2022/08/21 06:37:57;;;;;;;11.82;4.50;;;20.00;99.90;;;;;;5042516;28;20045;-69
2022/08/21 06:40:22;;;;;;;10.30;3.88;;;20.30;99.90;;;;;;5071609;28;20044;-70
2022/08/21 06:42:48;;;;;;;8.13;3.47;;;20.60;99.90;;;;;;5055655;28;20043;-70
2022/08/21 06:45:14;;;;;;;16.45;4.05;;;20.80;99.90;;;;;;5073968;28;20120;-70
2022/08/21 06:47:40;;;;;;;12.07;3.63;;;20.80;99.90;;;;;;5060647;28;20122;-71
2022/08/21 06:50:09;;;;;;;11.73;3.88;;;20.70;99.90;;;;;;5040019;28;20040;-71
2022/08/21 06:52:36;;;;;;;11.00;3.85;;;20.60;99.90;;;;;;5039423;28;20041;-71
2022/08/21 06:55:07;;;;;;;14.10;4.28;;;20.50;99.90;;;;;;5072467;28;20087;-71
2022/08/21 06:57:33;;;;;;;14.40;3.80;;;20.60;99.90;;;;;;5054642;28;20044;-70
2022/08/21 06:59:59;;;;;;;12.93;3.50;;;20.70;99.90;;;;;;5067233;28;20053;-70
2022/08/21 07:02:25;;;;;;;13.30;3.45;;;20.90;99.90;;;;;;5034626;28;20059;-69
2022/08/21 07:04:50;;;;;;;12.85;3.55;;;21.20;99.90;;;;;;5048823;28;20053;-69
2022/08/21 07:07:16;;;;;;;12.30;3.30;;;21.20;99.90;;;;;;5053042;28;20068;-70
2022/08/21 07:09:42;;;;;;;13.15;3.42;;;21.10;99.90;;;;;;5046302;28;20037;-71
2022/08/21 07:12:09;;;;;;;9.95;3.03;;;20.90;99.90;;;;;;5039725;28;20053;-69
2022/08/21 07:14:35;;;;;;;8.33;2.97;;;20.90;99.90;;;;;;5050800;28;20045;-69
2022/08/21 07:17:01;;;;;;;12.68;3.60;;;20.80;99.90;;;;;;5036893;28;20280;-70
2022/08/21 07:19:27;;;;;;;8.35;2.85;;;20.80;99.90;;;;;;5054805;28;20071;-70
2022/08/21 07:21:58;;;;;;;8.63;3.05;;;20.70;99.90;;;;;;5048024;28;20412;-71
2022/08/21 07:24:24;;;;;;;10.00;3.13;;;20.70;99.90;;;;;;5052558;28;20036;-71
2022/08/21 07:26:50;;;;;;;8.35;2.70;;;20.70;99.90;;;;;;5054258;28;20044;-71
2022/08/21 07:29:16;;;;;;;13.55;3.28;;;20.70;99.90;;;;;;5052866;28;20048;-69
2022/08/21 07:31:42;;;;;;;7.45;2.72;;;20.70;99.90;;;;;;5031754;28;20466;-72
2022/08/21 07:34:08;;;;;;;10.13;2.97;;;20.80;99.90;;;;;;5036017;28;20049;-70
2022/08/21 07:36:34;;;;;;;9.48;2.92;;;20.80;99.90;;;;;;5029099;28;20041;-70
2022/08/21 07:39:00;;;;;;;8.35;2.60;;;20.90;99.90;;;;;;5034815;28;20048;-70
2022/08/21 07:41:28;;;;;;;10.60;2.60;;;20.90;99.90;;;;;;5021627;28;20544;-69
2022/08/21 07:43:58;;;;;;;8.38;2.70;;;20.90;99.90;;;;;;5057254;28;20033;-69
2022/08/21 07:46:24;;;;;;;12.55;3.13;;;21.00;99.90;;;;;;5051110;28;20041;-70
2022/08/21 07:48:50;;;;;;;9.93;2.53;;;21.00;99.90;;;;;;5032814;28;20501;-71
2022/08/21 07:51:17;;;;;;;10.00;2.63;;;21.10;99.90;;;;;;5027313;28;20438;-70
2022/08/21 07:53:49;;;;;;;9.95;2.97;;;21.10;99.90;;;;;;5024515;28;20049;-70
2022/08/21 07:56:15;;;;;;;9.73;2.97;;;21.20;99.90;;;;;;5035887;28;20077;-70
2022/08/21 07:58:41;;;;;;;10.82;2.80;;;21.20;99.90;;;;;;5053896;28;20515;-70
2022/08/21 08:01:06;;;;;;;15.55;3.15;;;21.20;99.90;;;;;;5041016;28;20049;-70
2022/08/21 08:03:32;;;;;;;7.78;2.25;;;21.30;99.90;;;;;;5041505;28;20131;-70
2022/08/21 08:05:58;;;;;;;7.63;2.45;;;21.40;99.90;;;;;;5044990;28;20037;-70
2022/08/21 08:08:24;;;;;;;11.73;2.70;;;21.50;99.90;;;;;;5046857;28;20037;-69
2022/08/21 08:10:51;;;;;;;10.98;2.75;;;21.60;99.90;;;;;;5039874;28;20123;-70
2022/08/21 08:13:17;;;;;;;9.75;2.90;;;21.70;99.90;;;;;;5033194;28;20041;-71
2022/08/21 08:15:42;;;;;;;10.63;2.83;;;21.90;99.90;;;;;;5041722;28;20044;-71
2022/08/21 08:18:08;;;;;;;12.27;2.97;;;22.10;99.90;;;;;;5015952;28;20052;-70
2022/08/21 08:20:34;;;;;;;7.97;2.33;;;22.20;99.90;;;;;;5052290;28;20045;-71
2022/08/21 08:22:59;;;;;;;11.52;2.58;;;22.30;99.90;;;;;;5052997;28;20040;-70
2022/08/21 08:25:26;;;;;;;7.60;2.40;;;22.30;99.90;;;;;;5051621;28;20053;-70
2022/08/21 08:27:52;;;;;;;11.20;2.58;;;22.50;99.90;;;;;;5046502;28;20044;-71
2022/08/21 08:30:21;;;;;;;10.50;2.60;;;22.60;99.90;;;;;;5025277;28;20041;-71
2022/08/21 08:32:50;;;;;;;9.82;2.50;;;22.80;99.90;;;;;;5034709;28;20053;-71
2022/08/21 08:35:16;;;;;;;8.18;2.33;;;22.80;99.90;;;;;;5052490;28;20501;-71
2022/08/21 08:37:42;;;;;;;11.93;2.60;;;23.00;99.90;;;;;;5065228;28;20040;-71
2022/08/21 08:40:17;;;;;;;10.25;2.75;;;23.10;99.90;;;;;;5032939;28;20042;-70
2022/08/21 08:42:43;;;;;;;9.73;2.35;;;23.30;99.80;;;;;;5033408;28;20045;-71
2022/08/21 08:45:13;;;;;;;9.63;3.35;;;23.40;99.80;;;;;;5049530;28;20117;-72
2022/08/21 08:47:55;;;;;;;7.40;2.25;;;23.50;99.70;;;;;;5033279;28;20096;-70
2022/08/21 08:50:39;;;;;;;11.27;2.53;;;23.60;99.80;;;;;;5041620;28;20492;-71
2022/08/21 08:53:11;;;;;;;10.55;3.75;;;23.70;98.90;;;;;;5058490;28;20420;-71
2022/08/21 08:55:42;;;;;;;12.98;3.13;;;23.60;98.80;;;;;;5044480;28;20136;-72
2022/08/21 08:58:33;;;;;;;9.98;3.17;;;23.70;99.20;;;;;;5033554;28;20094;-71
2022/08/21 09:01:01;;;;;;;11.88;2.70;;;23.80;99.20;;;;;;5054859;28;20056;-70
2022/08/21 09:03:28;;;;;;;12.60;3.15;;;23.80;99.10;;;;;;5052928;28;20130;-72
2022/08/21 09:06:08;;;;;;;10.23;2.75;;;24.00;99.20;;;;;;5053339;28;20127;-71
2022/08/21 09:09:05;;;;;;;8.98;2.97;;;24.10;99.10;;;;;;5036644;28;20138;-70
2022/08/21 09:11:44;;;;;;;10.82;3.22;;;24.00;98.70;;;;;;5032992;28;20049;-71
2022/08/21 09:15:01;;;;;;;8.85;3.10;;;23.90;99.30;;;;;;5033002;28;20045;-71
2022/08/21 09:18:04;;;;;;;17.00;3.50;;;23.90;99.50;;;;;;5017641;28;20457;-71
2022/08/21 09:20:55;;;;;;;10.98;2.70;;;23.90;99.00;;;;;;5014290;28;20044;-70
2022/08/21 09:23:48;;;;;;;10.43;2.60;;;24.00;99.40;;;;;;5025599;28;20060;-71
2022/08/21 09:26:24;;;;;;;12.48;3.42;;;24.20;99.80;;;;;;5045048;28;20047;-72
2022/08/21 09:28:59;;;;;;;11.07;2.90;;;24.50;99.60;;;;;;5033117;28;20049;-71
2022/08/21 09:31:32;;;;;;;9.65;2.60;;;24.60;98.20;;;;;;5019515;28;20045;-70
2022/08/21 09:34:08;;;;;;;9.40;2.85;;;24.80;98.90;;;;;;5033046;28;20436;-71
2022/08/21 09:36:39;;;;;;;12.95;2.85;;;24.90;98.20;;;;;;5017849;28;20052;-71
2022/08/21 09:39:05;;;;;;;10.50;3.17;;;24.60;97.80;;;;;;5052115;28;20040;-72
2022/08/21 09:41:35;;;;;;;12.80;3.27;;;24.50;98.20;;;;;;5020379;28;20060;-71
2022/08/21 09:44:02;;;;;;;10.48;2.80;;;24.50;98.40;;;;;;5030799;28;20052;-70
2022/08/21 09:46:28;;;;;;;12.50;3.00;;;24.70;98.50;;;;;;5014471;28;20088;-70
2022/08/21 09:48:59;;;;;;;11.25;2.85;;;25.00;98.20;;;;;;5040667;28;20395;-70
2022/08/21 09:51:31;;;;;;;17.10;3.42;;;25.20;97.90;;;;;;5072432;28;20068;-72
2022/08/21 09:54:14;;;;;;;10.50;2.80;;;25.20;97.30;;;;;;5060853;28;20048;-70
2022/08/21 10:00:19;;;;;;;12.13;2.95;;;24.80;97.00;;;;;;5052819;28;20089;-71
2022/08/21 10:02:45;;;;;;;12.45;2.85;;;24.60;97.40;;;;;;5054545;28;20559;-72
2022/08/21 10:05:26;;;;;;;9.20;3.13;;;24.50;97.60;;;;;;5035984;28;20144;-71
2022/08/21 10:07:52;;;;;;;12.20;2.78;;;24.50;97.40;;;;;;5035592;28;20049;-71
2022/08/21 10:10:21;;;;;;;10.02;2.70;;;24.60;97.70;;;;;;5036021;28;20041;-70
2022/08/21 10:12:47;;;;;;;15.38;3.28;;;24.80;97.70;;;;;;5036329;28;20045;-70
2022/08/21 10:15:20;;;;;;;9.23;2.65;;;25.10;97.20;;;;;;5018045;28;20120;-71
2022/08/21 10:18:02;;;;;;;9.32;2.20;;;25.30;96.60;;;;;;5036098;28;20040;-71
2022/08/21 10:21:02;;;;;;;12.10;3.03;;;25.40;97.00;;;;;;5035633;28;20038;-71
2022/08/21 10:24:06;;;;;;;10.00;2.63;;;25.70;96.20;;;;;;5031505;28;20063;-71
2022/08/21 10:26:53;;;;;;;7.78;2.50;;;25.50;95.40;;;;;;5036131;28;20072;-70
2022/08/21 10:29:49;;;;;;;10.18;2.55;;;25.60;96.00;;;;;;5035867;28;20049;-71
2022/08/21 10:32:20;;;;;;;10.90;2.40;;;25.80;95.20;;;;;;5035674;28;20045;-70
2022/08/21 10:34:53;;;;;;;17.58;3.13;;;25.90;95.60;;;;;;5035276;28;20088;-70
2022/08/21 10:37:39;;;;;;;10.38;2.17;;;25.90;95.40;;;;;;5035617;28;20041;-70
2022/08/21 10:40:29;;;;;;;8.73;2.17;;;25.60;93.90;;;;;;4994937;28;20050;-70
2022/08/21 10:43:04;;;;;;;14.05;2.60;;;25.30;93.90;;;;;;5035962;28;20126;-70
2022/08/21 10:45:48;;;;;;;7.03;2.53;;;24.90;94.00;;;;;;5035089;28;20124;-70
2022/08/21 10:48:44;;;;;;;9.95;2.65;;;24.70;95.10;;;;;;5034899;28;20057;-70
2022/08/21 10:51:39;;;;;;;13.50;3.45;;;24.40;95.20;;;;;;5010994;28;20089;-70
2022/08/21 10:54:33;;;;;;;9.93;2.83;;;24.20;95.60;;;;;;5034921;28;20045;-71
2022/08/21 10:57:07;;;;;;;9.73;2.60;;;24.00;95.70;;;;;;5034900;28;20085;-70
2022/08/21 10:59:53;;;;;;;8.95;2.45;;;23.80;96.00;;;;;;5034887;28;20385;-70
2022/08/21 11:02:41;;;;;;;9.65;2.70;;;23.60;96.40;;;;;;5035394;28;20041;-71
2022/08/21 11:05:16;;;;;;;13.40;2.70;;;23.40;97.10;;;;;;5035148;28;20428;-71
2022/08/21 11:07:54;;;;;;;9.55;2.70;;;23.40;97.50;;;;;;5034794;28;20037;-72
2022/08/21 11:10:29;;;;;;;10.13;2.60;;;23.40;97.80;;;;;;5035181;28;20046;-72
2022/08/21 11:13:08;;;;;;;10.30;2.60;;;23.50;98.00;;;;;;5035306;28;20072;-70
2022/08/21 11:15:46;;;;;;;8.68;2.53;;;23.40;98.20;;;;;;5034452;28;20052;-71
2022/08/21 11:18:28;;;;;;;10.30;2.95;;;23.70;98.60;;;;;;5034804;28;20444;-71
2022/08/21 11:21:42;;;;;;;10.30;2.55;;;24.40;98.90;;;;;;5034627;28;20060;-71
2022/08/21 11:24:17;;;;;;;12.98;2.75;;;25.40;98.00;;;;;;5022426;28;20053;-71
2022/08/21 11:26:47;;;;;;;7.70;2.72;;;26.10;97.00;;;;;;5051426;28;20449;-71
2022/08/21 11:29:23;;;;;;;12.75;3.40;;;26.60;96.60;;;;;;5034723;28;20041;-70
2022/08/21 11:32:07;;;;;;;10.05;2.90;;;27.00;94.70;;;;;;5034292;28;20044;-71
2022/08/21 11:35:10;;;;;;;10.32;2.80;;;27.30;94.90;;;;;;5034652;28;20045;-71
2022/08/21 11:37:48;;;;;;;8.68;2.92;;;27.80;93.40;;;;;;5016569;28;20124;-70
2022/08/21 11:40:25;;;;;;;;;;;28.10;91.80;;;;;;5033520;28;20053;-71
2022/08/21 11:43:16;;;;;;;11.68;2.50;;;28.10;90.60;;;;;;5034333;28;19921;-72
2022/08/21 11:45:57;;;;;;;7.22;2.38;;;28.10;90.90;;;;;;5034219;28;20045;-71
2022/08/21 11:48:51;;;;;;;7.40;2.40;;;28.40;90.90;;;;;;5016155;28;20416;-71
2022/08/21 11:51:25;;;;;;;11.75;2.90;;;28.80;89.90;;;;;;5034161;28;20489;-71
2022/08/21 11:54:28;;;;;;;10.32;2.47;;;29.10;88.60;;;;;;5055142;28;20064;-71
2022/08/21 11:57:23;;;;;;;10.13;2.70;;;29.10;86.60;;;;;;5034220;28;20511;-71
2022/08/21 11:59:53;;;;;;;6.50;2.25;;;28.70;86.80;;;;;;5015941;28;20054;-72
2022/08/21 12:02:24;;;;;;;11.20;2.55;;;28.20;87.30;;;;;;5034076;28;20096;-71
2022/08/21 12:04:59;;;;;;;8.43;2.58;;;27.80;88.80;;;;;;5033973;28;20051;-71
2022/08/21 12:07:41;;;;;;;10.18;3.17;;;27.50;89.70;;;;;;5016749;28;20072;-70
2022/08/21 12:10:14;;;;;;;12.27;3.10;;;27.40;90.20;;;;;;5034621;28;20076;-70
2022/08/21 12:12:42;;;;;;;8.23;2.75;;;27.60;90.60;;;;;;5032505;28;20041;-69
2022/08/21 12:15:20;;;;;;;11.13;2.85;;;27.80;90.20;;;;;;5016784;28;20045;-70
2022/08/21 12:18:06;;;;;;;15.15;2.63;;;28.10;90.10;;;;;;5034141;28;20064;-71
2022/08/21 12:20:40;;;;;;;7.20;2.20;;;28.30;85.60;;;;;;5052208;28;20199;-70
2022/08/21 12:23:09;;;;;;;6.45;2.22;;;28.70;86.50;;;;;;5052893;28;20544;-70
2022/08/21 12:25:42;;;;;;;7.18;2.33;;;29.00;83.20;;;;;;5037460;28;20183;-73
2022/08/21 12:28:14;;;;;;;6.70;1.92;;;29.20;82.70;;;;;;5014901;28;20053;-71
2022/08/21 12:30:44;;;;;;;9.25;2.58;;;29.20;82.40;;;;;;5050196;28;20045;-70
2022/08/21 12:33:39;;;;;;;7.95;2.30;;;29.10;80.80;;;;;;5048140;28;20045;-72
2022/08/21 12:36:07;;;;;;;10.15;2.80;;;29.10;81.30;;;;;;5039272;28;20376;-72
2022/08/21 12:38:45;;;;;;;7.00;2.58;;;29.30;82.30;;;;;;5029136;28;20041;-70
2022/08/21 12:41:18;;;;;;;10.85;2.55;;;29.50;80.10;;;;;;5038694;28;20044;-71
2022/08/21 12:43:51;;;;;;;7.45;2.42;;;29.50;79.10;;;;;;5014920;28;20106;-72
2022/08/21 12:46:36;;;;;;;7.22;2.30;;;29.20;80.10;;;;;;5046737;28;20052;-72
2022/08/21 12:49:12;;;;;;;7.38;2.15;;;29.10;78.80;;;;;;5052869;28;20044;-70
2022/08/21 12:52:02;;;;;;;9.25;2.47;;;28.80;79.90;;;;;;5026611;28;20042;-71
2022/08/21 12:54:36;;;;;;;9.32;2.10;;;28.30;78.90;;;;;;5023591;28;20076;-72
2022/08/21 12:57:04;;;;;;;5.05;2.05;;;27.90;80.70;;;;;;5021906;28;20121;-71
2022/08/21 12:59:31;;;;;;;6.22;1.85;;;27.80;81.80;;;;;;5042960;28;20049;-72
2022/08/21 13:02:00;;;;;;;6.50;2.22;;;27.60;82.30;;;;;;5069259;28;20711;-72